Skellytown, Texas
Current Conditions -  °F | °C
As of 5:15 PM on Friday 19 Dec 2014 (Local Time) from KPPA Reporting Station
Overcast Overcast  
Wind Chill: 36°   Ceiling: 1200
Heat Index: 40°   Visibility: 10mi
Dew Point: 35°   Wind: 6mph
Humidity: 83%   Direction: 230°SW
Pressure: 30.12"   Gusts: NA
Location:  35.58°N, 101.18°W
Report Text: KPPA 192315Z AUTO 23005KT 10SM OVC012 05/02 A3012 RMK AO2 T00460019 PNO
Loading
Personal Weather Stations






























Interactive Weather Map New forecast layout! Learn more

10-Day Weather Forecast

Advertisements
Track Severe Weather on mobile